Time;durP1;ratioP1;P1;durP2;ratioP2;P2;SDS_P1;SDS_P2;PMS_P1;PMS_P2;Temp;Humidity;BMP_temperature;BMP_pressure;BME280_temperature;BME280_humidity;BME280_pressure;Samples;Min_cycle;Max_cycle;Signal;HPM_P1;HPM_P2
2023/01/12 00:02:16;;;;;;;0.20;0.20;;;;;;;5.03;100.00;96322.41;5051551;28;20122;-76
2023/01/12 00:05:02;;;;;;;0.20;0.20;;;;;;;5.04;100.00;96313.44;5051224;28;20036;-75
2023/01/12 00:07:48;;;;;;;0.20;0.20;;;;;;;5.06;100.00;96307.91;5050825;28;20047;-76
2023/01/12 00:10:33;;;;;;;0.20;0.20;;;;;;;5.09;100.00;96307.50;5049583;28;20047;-75
2023/01/12 00:13:19;;;;;;;0.10;0.10;;;;;;;5.12;100.00;96297.25;5054519;28;20037;-76
2023/01/12 00:19:21;;;;;;;0.10;0.10;;;;;;;5.11;100.00;96287.66;5051302;28;20336;-77
2023/01/12 00:22:10;;;;;;;0.25;0.25;;;;;;;5.14;100.00;96286.44;5063465;28;20621;-75
2023/01/12 00:24:56;;;;;;;0.30;0.30;;;;;;;5.04;100.00;96295.66;5048323;28;20064;-77
2023/01/12 00:27:47;;;;;;;0.17;0.17;;;;;;;5.05;100.00;96285.88;5036232;28;20040;-76
2023/01/12 00:30:33;;;;;;;0.20;0.20;;;;;;;5.14;100.00;96287.25;5062421;28;20049;-76
2023/01/12 00:33:21;;;;;;;0.20;0.20;;;;;;;5.12;100.00;96283.16;5050574;28;20044;-76
2023/01/12 00:36:12;;;;;;;0.10;0.10;;;;;;;4.90;100.00;96288.03;5050512;28;20114;-75
2023/01/12 00:38:57;;;;;;;0.20;0.20;;;;;;;4.83;100.00;96272.22;5051536;28;20101;-75
2023/01/12 00:47:53;;;;;;;0.20;0.20;;;;;;;4.63;100.00;96287.44;5053147;28;20322;-76
2023/01/12 00:50:39;;;;;;;0.20;0.20;;;;;;;4.64;100.00;96281.13;5054695;28;20048;-77
2023/01/12 00:53:25;;;;;;;0.10;0.10;;;;;;;4.68;100.00;96283.13;5054197;28;20449;-76
2023/01/12 00:56:11;;;;;;;0.15;0.15;;;;;;;4.74;100.00;96300.81;5053998;28;20040;-76
2023/01/12 00:58:56;;;;;;;0.15;0.15;;;;;;;4.66;100.00;96284.34;5052198;28;20048;-75
2023/01/12 01:01:42;;;;;;;0.20;0.20;;;;;;;4.74;100.00;96279.59;5050655;28;20636;-77
2023/01/12 01:04:28;;;;;;;0.20;0.20;;;;;;;4.72;100.00;96305.53;5053049;28;20036;-76
2023/01/12 01:07:14;;;;;;;0.10;0.10;;;;;;;4.74;100.00;96287.56;5040326;28;20040;-77
2023/01/12 01:10:00;;;;;;;0.20;0.20;;;;;;;4.87;100.00;96293.78;5054543;28;20052;-75
2023/01/12 01:12:46;;;;;;;0.20;0.20;;;;;;;4.95;100.00;96275.75;5051515;28;20186;-74
2023/01/12 01:15:32;;;;;;;0.20;0.20;;;;;;;4.93;100.00;96277.03;5040097;28;20052;-77
2023/01/12 01:18:18;;;;;;;0.15;0.15;;;;;;;4.84;100.00;96268.53;5054153;28;20523;-75
2023/01/12 01:21:04;;;;;;;0.20;0.20;;;;;;;4.89;100.00;96273.16;5052160;28;20568;-75
2023/01/12 01:23:50;;;;;;;0.20;0.20;;;;;;;4.87;100.00;96277.88;5057777;28;20718;-75
2023/01/12 01:26:36;;;;;;;0.20;0.20;;;;;;;4.92;100.00;96280.72;5039199;28;20163;-76
2023/01/12 01:29:21;;;;;;;0.20;0.20;;;;;;;4.89;100.00;96270.50;5052704;28;20045;-75
2023/01/12 01:32:07;;;;;;;0.20;0.20;;;;;;;4.75;100.00;96270.66;5053440;28;20059;-75
2023/01/12 01:34:53;;;;;;;0.20;0.20;;;;;;;4.82;100.00;96278.53;5053719;28;20505;-74
2023/01/12 01:37:39;;;;;;;0.20;0.20;;;;;;;4.82;100.00;96278.53;5052822;28;20036;-75
2023/01/12 01:40:25;;;;;;;0.20;0.20;;;;;;;4.91;100.00;96268.47;5053816;28;20815;-76
2023/01/12 01:43:17;;;;;;;0.22;0.22;;;;;;;4.91;100.00;96284.38;5039321;28;20251;-74
2023/01/12 01:46:08;;;;;;;0.10;0.10;;;;;;;4.88;100.00;96274.19;5036195;28;20119;-74
2023/01/12 01:48:55;;;;;;;;;;;;;;;4.99;100.00;96286.78;5055091;28;20062;-76
2023/01/12 01:51:42;;;;;;;0.22;0.20;;;;;;;4.99;100.00;96271.66;5051643;28;19924;-76
2023/01/12 01:54:35;;;;;;;0.17;0.17;;;;;;;4.87;100.00;96288.50;5049859;28;20325;-76
2023/01/12 01:57:26;;;;;;;0.20;0.20;;;;;;;4.93;100.00;96277.03;5052215;28;20056;-76
2023/01/12 02:00:13;;;;;;;0.20;0.20;;;;;;;4.93;100.00;96271.72;5052278;28;20048;-75
2023/01/12 02:03:03;;;;;;;0.10;0.10;;;;;;;5.04;100.00;96269.16;5042244;28;20524;-74
2023/01/12 02:05:51;;;;;;;0.20;0.20;;;;;;;5.13;100.00;96282.94;5045804;28;20130;-76
2023/01/12 02:08:44;;;;;;;0.20;0.20;;;;;;;5.11;100.00;96268.28;5052032;28;20048;-76
2023/01/12 02:17:48;;;;;;;0.20;0.20;;;;;;;5.11;100.00;96261.13;5055557;28;20416;-76
2023/01/12 02:20:57;;;;;;;0.20;0.20;;;;;;;5.14;100.00;96254.59;5050709;28;20239;-76
2023/01/12 02:23:52;;;;;;;0.22;0.22;;;;;;;5.14;100.00;96241.34;5053756;28;20525;-75
2023/01/12 02:26:56;;;;;;;0.20;0.20;;;;;;;5.13;100.00;96251.13;5051204;28;20041;-75
2023/01/12 02:30:13;;;;;;;0.10;0.10;;;;;;;5.11;100.00;96247.88;5050152;28;20125;-74
2023/01/12 02:33:22;;;;;;;0.10;0.10;;;;;;;5.18;100.00;96243.31;5050278;28;20560;-76
2023/01/12 02:36:24;;;;;;;0.20;0.20;;;;;;;5.21;100.00;96250.03;5049877;28;20047;-74
2023/01/12 02:39:18;;;;;;;;;;;;;;;5.17;100.00;96239.03;5054496;28;20036;-76
2023/01/12 02:46:10;;;;;;;0.20;0.20;;;;;;;5.10;100.00;96237.50;5052246;28;20027;-76
2023/01/12 02:49:06;;;;;;;0.20;0.20;;;;;;;5.23;100.00;96242.66;5053762;28;20041;-76
2023/01/12 02:51:58;;;;;;;0.20;0.20;;;;;;;5.18;100.00;96238.00;5049885;28;20539;-75
2023/01/12 02:54:48;;;;;;;0.20;0.20;;;;;;;5.13;100.00;96229.91;5050504;28;20711;-75
2023/01/12 02:57:36;;;;;;;0.20;0.20;;;;;;;5.12;100.00;96238.88;5050988;28;20040;-74
2023/01/12 03:00:22;;;;;;;0.10;0.10;;;;;;;5.18;100.00;96226.59;5052061;28;20483;-76
2023/01/12 03:03:08;;;;;;;0.20;0.20;;;;;;;5.12;100.00;96228.28;5040194;28;20033;-74
2023/01/12 03:05:57;;;;;;;0.20;0.20;;;;;;;5.08;100.00;96223.66;5051702;28;20392;-76
2023/01/12 03:08:46;;;;;;;0.20;0.20;;;;;;;5.05;100.00;96232.84;5050207;28;20166;-74
2023/01/12 03:11:35;;;;;;;0.13;0.13;;;;;;;5.10;100.00;96246.25;5052261;28;20043;-74
2023/01/12 03:14:25;;;;;;;0.10;0.10;;;;;;;5.03;100.00;96232.25;5052123;28;20037;-76
2023/01/12 03:17:21;;;;;;;0.20;0.20;;;;;;;5.04;100.00;96210.81;5050599;28;20064;-75
2023/01/12 03:20:16;;;;;;;0.20;0.20;;;;;;;5.13;100.00;96208.69;5051084;28;20043;-76
2023/01/12 03:23:11;;;;;;;0.20;0.20;;;;;;;5.25;100.00;96206.94;5040992;28;20532;-77
2023/01/12 03:26:01;;;;;;;0.20;0.20;;;;;;;5.32;100.00;96196.25;5054299;28;20040;-76
2023/01/12 03:28:52;;;;;;;0.20;0.20;;;;;;;5.28;100.00;96203.00;5050770;28;20841;-76
2023/01/12 03:31:41;;;;;;;0.20;0.20;;;;;;;5.24;100.00;96193.88;5047520;28;20082;-75
2023/01/12 03:34:27;;;;;;;0.20;0.20;;;;;;;5.22;100.00;96201.25;5051146;28;20040;-76
2023/01/12 03:37:19;;;;;;;0.17;0.17;;;;;;;5.20;100.00;96209.41;5044423;28;20441;-74
2023/01/12 03:40:20;;;;;;;0.20;0.20;;;;;;;5.27;100.00;96202.19;5063517;28;20041;-75
2023/01/12 03:43:13;;;;;;;0.20;0.20;;;;;;;5.23;100.00;96193.06;5052196;28;20063;-76
2023/01/12 03:46:08;;;;;;;0.20;0.20;;;;;;;5.37;100.00;96193.75;5049916;28;20037;-76
2023/01/12 03:49:09;;;;;;;0.10;0.10;;;;;;;5.39;100.00;96190.88;5052938;28;20040;-75
2023/01/12 03:51:57;;;;;;;0.20;0.20;;;;;;;5.29;100.00;96210.78;5062196;28;20241;-76
2023/01/12 03:54:46;;;;;;;0.20;0.20;;;;;;;5.41;100.00;96181.63;5049306;28;20576;-76
2023/01/12 03:57:32;;;;;;;0.20;0.20;;;;;;;5.46;100.00;96180.97;5048244;28;20044;-76
2023/01/12 04:00:20;;;;;;;0.20;0.20;;;;;;;5.39;100.00;96177.59;5051439;28;20139;-75
2023/01/12 04:03:14;;;;;;;0.20;0.20;;;;;;;5.35;100.00;96168.44;5051679;28;20362;-77
2023/01/12 04:06:00;;;;;;;0.20;0.20;;;;;;;5.39;100.00;96177.59;5050173;28;20394;-75
2023/01/12 04:08:46;;;;;;;0.22;0.22;;;;;;;5.32;100.00;96165.22;5050353;28;20037;-77
2023/01/12 04:14:37;;;;;;;0.30;0.30;;;;;;;5.34;100.00;96183.56;5051763;28;20119;-76
2023/01/12 04:17:24;;;;;;;0.20;0.20;;;;;;;5.36;100.00;96160.25;5043323;28;20040;-76
2023/01/12 04:20:10;;;;;;;0.28;0.25;;;;;;;5.40;100.00;96160.63;5046316;28;20540;-75
2023/01/12 04:22:57;;;;;;;0.22;0.22;;;;;;;5.42;100.00;96158.56;5055269;28;20268;-76
2023/01/12 04:25:43;;;;;;;0.20;0.20;;;;;;;5.38;100.00;96162.72;5054886;28;21298;-76
2023/01/12 04:28:29;;;;;;;0.20;0.20;;;;;;;5.37;100.00;96167.22;5055237;28;20029;-76
2023/01/12 04:31:15;;;;;;;0.10;0.10;;;;;;;5.44;100.00;96154.66;5045240;28;20052;-76
2023/01/12 04:34:01;;;;;;;0.20;0.20;;;;;;;5.48;100.00;96153.19;5070090;28;20114;-76
2023/01/12 04:36:47;;;;;;;0.20;0.20;;;;;;;5.41;100.00;96139.19;5036272;28;20333;-76
2023/01/12 04:39:34;;;;;;;0.20;0.20;;;;;;;5.41;100.00;96136.53;5050749;28;20045;-74
2023/01/12 04:45:24;;;;;;;0.20;0.20;;;;;;;5.27;100.00;96135.88;5054652;28;20040;-75
2023/01/12 04:48:11;;;;;;;0.20;0.20;;;;;;;5.20;100.00;96121.06;5057685;28;20040;-76
2023/01/12 04:50:59;;;;;;;0.20;0.20;;;;;;;5.34;100.00;96111.91;5055290;28;20048;-77
2023/01/12 04:53:47;;;;;;;0.20;0.20;;;;;;;5.41;100.00;96135.72;5052760;28;20028;-77
2023/01/12 04:56:32;;;;;;;0.20;0.20;;;;;;;5.48;100.00;96125.84;5054200;28;20055;-76
2023/01/12 04:59:18;;;;;;;0.20;0.20;;;;;;;5.48;100.00;96105.41;5051765;28;20440;-74
2023/01/12 05:02:04;;;;;;;0.20;0.20;;;;;;;5.43;100.00;96109.75;5053904;28;20442;-77
2023/01/12 05:04:50;;;;;;;0.20;0.20;;;;;;;5.42;100.00;96102.84;5055166;28;20430;-76
2023/01/12 05:07:36;;;;;;;0.13;0.13;;;;;;;5.56;100.00;96093.66;5055043;28;20361;-76
2023/01/12 05:10:21;;;;;;;0.20;0.20;;;;;;;5.49;100.00;96114.19;5054472;28;20032;-77
2023/01/12 05:13:07;;;;;;;0.20;0.20;;;;;;;5.56;100.00;96091.00;5054068;28;20044;-75
2023/01/12 05:15:53;;;;;;;0.20;0.20;;;;;;;5.47;100.00;96105.63;5052806;28;20060;-76
2023/01/12 05:18:39;;;;;;;0.15;0.15;;;;;;;5.51;100.00;96088.22;5054101;28;20087;-77
2023/01/12 05:21:25;;;;;;;0.15;0.15;;;;;;;5.48;100.00;96083.38;5053681;28;20501;-77
2023/01/12 05:24:10;;;;;;;0.20;0.20;;;;;;;5.54;100.00;96079.81;5056195;28;20123;-75
2023/01/12 05:26:56;;;;;;;0.20;0.20;;;;;;;5.62;100.00;96079.50;5053710;28;20059;-77
2023/01/12 05:29:42;;;;;;;0.20;0.20;;;;;;;5.54;100.00;96080.63;5052700;28;20044;-75
2023/01/12 05:32:28;;;;;;;0.10;0.10;;;;;;;5.53;100.00;96080.88;5055226;28;20055;-77
2023/01/12 05:35:14;;;;;;;0.20;0.20;;;;;;;5.47;100.00;96065.84;5052623;28;20479;-77
2023/01/12 05:38:00;;;;;;;0.20;0.20;;;;;;;5.63;100.00;96080.31;5043839;28;20043;-76
2023/01/12 05:40:46;;;;;;;0.10;0.10;;;;;;;5.56;100.00;96059.97;5053299;28;20495;-75
2023/01/12 05:43:50;;;;;;;0.17;0.17;;;;;;;5.47;100.00;96037.44;5053723;28;20468;-76
2023/01/12 05:46:39;;;;;;;0.20;0.20;;;;;;;5.45;100.00;96050.13;5051678;28;20127;-76
2023/01/12 05:49:24;;;;;;;0.20;0.20;;;;;;;5.39;100.00;96045.72;5056398;28;20143;-76
2023/01/12 05:52:10;;;;;;;0.20;0.20;;;;;;;5.33;100.00;96036.00;5038932;28;20156;-75
2023/01/12 05:54:56;;;;;;;0.20;0.20;;;;;;;5.35;100.00;96038.44;5051820;28;20548;-76
2023/01/12 05:57:42;;;;;;;0.20;0.20;;;;;;;5.27;100.00;96052.81;5065711;28;20059;-76
2023/01/12 06:00:28;;;;;;;0.15;0.15;;;;;;;5.34;100.00;96058.84;5056156;28;20173;-77
2023/01/12 06:03:14;;;;;;;0.20;0.20;;;;;;;5.38;100.00;96035.34;5054274;28;20041;-77
2023/01/12 06:05:59;;;;;;;0.13;0.13;;;;;;;5.40;100.00;96034.06;5053019;28;20033;-77
2023/01/12 06:08:46;;;;;;;0.20;0.20;;;;;;;5.38;100.00;96032.69;5054000;28;20041;-74
2023/01/12 06:14:36;;;;;;;0.20;0.20;;;;;;;5.46;100.00;96008.50;5053340;28;20352;-76
2023/01/12 06:17:22;;;;;;;0.20;0.20;;;;;;;5.32;100.00;96013.97;5053978;28;20056;-74
2023/01/12 06:20:13;;;;;;;0.20;0.20;;;;;;;5.31;100.00;96004.41;5067048;28;20679;-76
2023/01/12 06:23:01;;;;;;;0.20;0.20;;;;;;;5.22;100.00;96004.97;5053091;28;20381;-77
2023/01/12 06:25:46;;;;;;;0.20;0.20;;;;;;;5.25;100.00;95981.44;5050727;28;20689;-77
2023/01/12 06:28:33;;;;;;;0.20;0.20;;;;;;;5.09;100.00;95984.72;5057489;28;20252;-76
2023/01/12 06:31:19;;;;;;;0.20;0.20;;;;;;;5.07;100.00;95986.78;5065875;28;20043;-77
2023/01/12 06:34:08;;;;;;;0.20;0.20;;;;;;;5.11;100.00;95997.75;5052806;28;20326;-75
2023/01/12 06:36:54;;;;;;;0.20;0.20;;;;;;;5.13;100.00;95975.25;5037896;28;20044;-76
2023/01/12 06:39:39;;;;;;;0.20;0.20;;;;;;;5.09;100.00;95997.16;5047821;28;21101;-76
2023/01/12 06:42:28;;;;;;;0.20;0.20;;;;;;;5.08;100.00;95990.25;5039823;28;20374;-76
2023/01/12 06:45:15;;;;;;;0.20;0.20;;;;;;;4.97;100.00;96007.72;5054654;28;20178;-76
2023/01/12 06:48:01;;;;;;;0.20;0.20;;;;;;;4.93;100.00;95995.94;5052745;28;20363;-75
2023/01/12 06:50:47;;;;;;;0.20;0.20;;;;;;;4.89;100.00;95995.56;5063512;28;20566;-75
2023/01/12 06:53:32;;;;;;;0.20;0.20;;;;;;;4.97;100.00;95991.81;5039898;28;20086;-76
2023/01/12 06:56:18;;;;;;;0.10;0.10;;;;;;;4.97;100.00;95986.50;5052285;28;20044;-74
2023/01/12 06:59:04;;;;;;;0.20;0.20;;;;;;;4.96;100.00;96014.88;5052815;28;20410;-77
2023/01/12 07:01:50;;;;;;;0.10;0.10;;;;;;;4.88;100.00;95978.06;5055873;28;20520;-76
2023/01/12 07:04:36;;;;;;;0.10;0.10;;;;;;;4.93;100.00;96002.06;5049414;28;20123;-75
2023/01/12 07:07:22;;;;;;;0.20;0.20;;;;;;;4.95;100.00;96001.84;5066144;28;20661;-75
2023/01/12 07:10:12;;;;;;;0.17;0.17;;;;;;;4.86;100.00;96006.63;5054900;28;20044;-75
2023/01/12 07:13:01;;;;;;;0.20;0.20;;;;;;;4.89;100.00;95973.56;5040437;28;20486;-76
2023/01/12 07:15:47;;;;;;;0.20;0.20;;;;;;;4.91;100.00;95992.72;5053694;28;20039;-77
2023/01/12 07:18:33;;;;;;;0.20;0.20;;;;;;;4.92;100.00;95976.59;5055222;28;20219;-76
2023/01/12 07:21:19;;;;;;;0.20;0.20;;;;;;;4.91;100.00;95988.22;5066511;28;20036;-75
2023/01/12 07:24:05;;;;;;;0.17;0.17;;;;;;;4.94;100.00;95974.50;5056813;28;20187;-75
2023/01/12 07:26:52;;;;;;;0.10;0.10;;;;;;;5.07;100.00;95976.19;5056686;28;20131;-76
2023/01/12 07:29:38;;;;;;;0.20;0.20;;;;;;;5.00;100.00;95964.84;5051670;28;20043;-75
2023/01/12 07:32:25;;;;;;;0.20;0.20;;;;;;;4.95;100.00;95962.88;5055299;28;20058;-75
2023/01/12 07:35:11;;;;;;;0.20;0.20;;;;;;;4.93;100.00;95970.25;5051660;28;20040;-74
2023/01/12 07:37:57;;;;;;;0.10;0.10;;;;;;;4.90;100.00;95989.25;5053195;28;20049;-76
2023/01/12 07:40:43;;;;;;;0.20;0.20;;;;;;;4.88;100.00;95953.38;5052666;28;20174;-76
2023/01/12 07:43:29;;;;;;;0.10;0.10;;;;;;;4.93;100.00;95966.78;5058266;28;20280;-75
2023/01/12 07:46:15;;;;;;;0.20;0.20;;;;;;;4.93;100.00;95954.34;5053164;28;20101;-76
2023/01/12 07:49:01;;;;;;;0.20;0.20;;;;;;;4.97;100.00;95973.25;5053145;28;20360;-76
2023/01/12 07:51:47;;;;;;;0.20;0.20;;;;;;;4.98;100.00;95956.28;5052918;28;20040;-75
2023/01/12 07:54:34;;;;;;;0.20;0.20;;;;;;;5.02;100.00;95957.47;5058273;28;20667;-76
2023/01/12 07:57:20;;;;;;;0.20;0.20;;;;;;;5.05;100.00;95951.72;5057605;28;20084;-77
2023/01/12 08:00:07;;;;;;;0.10;0.10;;;;;;;5.10;100.00;95969.63;5056207;28;20489;-75
2023/01/12 08:02:54;;;;;;;0.10;0.10;;;;;;;5.03;100.00;95959.91;5058626;28;20344;-74
2023/01/12 08:05:40;;;;;;;0.10;0.10;;;;;;;5.02;100.00;95965.44;5055448;28;20044;-76
2023/01/12 08:08:26;;;;;;;0.20;0.20;;;;;;;5.09;100.00;95962.69;5058576;28;20040;-76
2023/01/12 08:11:11;;;;;;;0.20;0.20;;;;;;;5.09;100.00;95957.38;5058220;28;20253;-77
2023/01/12 08:13:57;;;;;;;0.20;0.20;;;;;;;5.06;100.00;95971.06;5070709;28;20509;-75
2023/01/12 08:16:48;;;;;;;0.20;0.20;;;;;;;5.15;100.00;95973.22;5053389;28;20066;-74
2023/01/12 08:19:50;;;;;;;0.20;0.20;;;;;;;5.17;100.00;95971.13;5057779;28;20789;-75
2023/01/12 08:22:41;;;;;;;0.20;0.20;;;;;;;5.22;100.00;95952.72;5042759;28;20371;-75
2023/01/12 08:25:37;;;;;;;0.20;0.20;;;;;;;5.25;100.00;95962.84;5054662;28;20245;-76
2023/01/12 08:28:31;;;;;;;0.20;0.20;;;;;;;5.17;100.00;95933.19;5058342;28;20452;-74
2023/01/12 08:31:20;;;;;;;0.10;0.10;;;;;;;5.27;100.00;95952.00;5055574;28;20040;-75
2023/01/12 08:34:08;;;;;;;0.17;0.17;;;;;;;5.31;100.00;95956.66;5058599;28;20064;-76
2023/01/12 08:36:57;;;;;;;0.10;0.10;;;;;;;5.35;100.00;95945.56;5066260;28;20178;-76
2023/01/12 08:39:43;;;;;;;0.20;0.20;;;;;;;5.28;100.00;95949.13;5055649;28;20032;-75
2023/01/12 08:42:29;;;;;;;0.20;0.20;;;;;;;5.38;100.00;95953.09;5043687;28;20527;-77
2023/01/12 08:45:15;;;;;;;0.20;0.20;;;;;;;5.35;100.00;95949.03;5069647;28;20468;-76
2023/01/12 08:48:01;;;;;;;0.13;0.13;;;;;;;5.42;100.00;95959.53;5041989;28;20562;-76
2023/01/12 08:50:47;;;;;;;0.22;0.22;;;;;;;5.38;100.00;95959.19;5054636;28;20540;-76
2023/01/12 08:53:34;;;;;;;0.20;0.20;;;;;;;5.48;100.00;95958.63;5054370;28;20044;-77
2023/01/12 08:56:20;;;;;;;0.20;0.20;;;;;;;5.45;100.00;95962.56;5058507;28;20040;-75
2023/01/12 08:59:06;;;;;;;0.20;0.20;;;;;;;5.47;100.00;95954.38;5057481;28;20067;-77
2023/01/12 09:01:52;;;;;;;0.10;0.10;;;;;;;5.43;100.00;95974.44;5040526;28;20729;-77
2023/01/12 09:04:39;;;;;;;0.20;0.20;;;;;;;5.52;100.00;95962.44;5056029;28;20484;-76
2023/01/12 09:07:25;;;;;;;0.20;0.20;;;;;;;5.47;100.00;95960.47;5054721;28;20525;-75
2023/01/12 09:10:10;;;;;;;0.20;0.20;;;;;;;5.38;100.00;95947.78;5055368;28;20506;-77
2023/01/12 09:12:56;;;;;;;0.20;0.20;;;;;;;5.38;100.00;95961.06;5058361;28;20044;-75
2023/01/12 09:15:42;;;;;;;0.20;0.20;;;;;;;5.56;100.00;95963.63;5053499;28;20071;-76
2023/01/12 09:18:28;;;;;;;0.20;0.20;;;;;;;5.59;100.00;95969.25;5055852;28;20416;-76
2023/01/12 09:21:17;;;;;;;0.20;0.20;;;;;;;5.55;100.00;95964.66;5052885;28;20200;-76
2023/01/12 09:24:03;;;;;;;0.20;0.20;;;;;;;5.53;100.00;95950.81;5053769;28;20112;-76
2023/01/12 09:26:49;;;;;;;0.15;0.15;;;;;;;5.49;100.00;95963.72;5041647;28;20116;-76
2023/01/12 09:29:35;;;;;;;0.20;0.20;;;;;;;5.50;100.00;95964.53;5055736;28;20032;-76
2023/01/12 09:32:21;;;;;;;0.20;0.20;;;;;;;5.46;100.00;95982.75;5053964;28;20472;-76
2023/01/12 09:35:07;;;;;;;0.30;0.30;;;;;;;5.59;100.00;95977.22;5053976;28;20302;-76
2023/01/12 09:37:53;;;;;;;0.20;0.20;;;;;;;5.63;100.00;95982.91;5042850;28;20566;-76
2023/01/12 09:40:43;;;;;;;0.10;0.10;;;;;;;5.60;100.00;95964.75;5042010;28;20720;-75
2023/01/12 09:49:47;;;;;;;0.20;0.20;;;;;;;5.72;100.00;95957.63;5052698;28;20534;-76
2023/01/12 09:52:43;;;;;;;0.20;0.20;;;;;;;5.77;100.00;95976.34;5054622;28;20044;-76
2023/01/12 09:55:48;;;;;;;0.20;0.20;;;;;;;5.68;100.00;95972.41;5054246;28;20066;-75
2023/01/12 09:59:06;;;;;;;0.15;0.15;;;;;;;5.84;100.00;95960.31;5050758;28;20055;-76
2023/01/12 10:01:52;;;;;;;0.20;0.20;;;;;;;5.83;100.00;95985.22;5025915;28;20114;-75
2023/01/12 10:04:39;;;;;;;0.20;0.20;;;;;;;5.83;100.00;95964.78;5052784;28;20538;-75
2023/01/12 10:07:25;;;;;;;0.20;0.20;;;;;;;5.82;100.00;95999.53;5053631;28;20083;-74
2023/01/12 10:10:14;;;;;;;0.15;0.15;;;;;;;5.94;100.00;95994.28;5040318;28;20045;-74
2023/01/12 10:13:04;;;;;;;0.20;0.20;;;;;;;5.94;100.00;95984.47;5056521;28;20044;-76
2023/01/12 10:15:59;;;;;;;0.20;0.20;;;;;;;5.84;100.00;95984.19;5051409;28;20147;-76
2023/01/12 10:18:48;;;;;;;0.20;0.20;;;;;;;5.91;100.00;95976.13;5053563;28;20444;-74
2023/01/12 10:21:34;;;;;;;0.10;0.10;;;;;;;6.02;100.00;95996.59;5053835;28;20094;-76
2023/01/12 10:24:23;;;;;;;0.13;0.13;;;;;;;6.02;100.00;95978.00;5067898;28;20898;-75
2023/01/12 10:27:13;;;;;;;0.10;0.10;;;;;;;6.02;100.00;95964.72;5054009;28;20078;-75
2023/01/12 10:30:00;;;;;;;0.20;0.20;;;;;;;6.06;100.00;95984.44;5052307;28;20143;-76
2023/01/12 10:32:46;;;;;;;0.20;0.20;;;;;;;6.03;100.00;95969.78;5053584;28;20448;-75
2023/01/12 10:35:32;;;;;;;0.10;0.10;;;;;;;6.07;100.00;95980.75;5053937;28;20040;-76
2023/01/12 10:38:37;;;;;;;0.10;0.10;;;;;;;6.12;100.00;95979.03;5053178;28;20110;-75
2023/01/12 10:41:27;;;;;;;0.20;0.20;;;;;;;6.14;100.00;95962.84;5040188;28;20194;-74
2023/01/12 10:44:15;;;;;;;0.10;0.10;;;;;;;6.07;100.00;95986.06;5053833;28;20044;-74
2023/01/12 10:47:09;;;;;;;0.20;0.20;;;;;;;6.17;100.00;95981.00;5055186;28;20040;-75
2023/01/12 10:50:18;;;;;;;0.20;0.20;;;;;;;6.26;100.00;95961.00;5057299;28;20040;-75
2023/01/12 10:53:16;;;;;;;0.20;0.20;;;;;;;6.33;100.00;95964.34;5046034;28;20443;-75
2023/01/12 10:56:40;;;;;;;0.20;0.20;;;;;;;6.29;100.00;95960.53;5052772;28;20079;-77
2023/01/12 10:59:30;;;;;;;0.10;0.10;;;;;;;6.29;100.00;95949.91;5051659;28;20180;-77
2023/01/12 11:02:17;;;;;;;0.20;0.20;;;;;;;6.24;100.00;95971.06;5054107;28;20056;-76
2023/01/12 11:05:29;;;;;;;0.20;0.20;;;;;;;6.17;100.00;95958.94;5054565;28;20044;-76
2023/01/12 11:08:26;;;;;;;0.20;0.20;;;;;;;6.13;100.00;95959.38;5054160;28;20031;-76
2023/01/12 11:11:25;;;;;;;0.20;0.20;;;;;;;6.14;100.00;95950.38;5052821;28;20044;-75
2023/01/12 11:14:24;;;;;;;0.10;0.10;;;;;;;6.25;100.00;95958.59;5065721;28;20044;-76
2023/01/12 11:17:41;;;;;;;0.20;0.20;;;;;;;6.24;100.00;95951.66;5053097;28;20040;-75
2023/01/12 11:20:42;;;;;;;0.20;0.20;;;;;;;6.25;100.00;95967.34;5055791;28;20086;-76
2023/01/12 11:23:36;;;;;;;0.20;0.20;;;;;;;6.30;100.00;95961.31;5053452;28;20505;-75
2023/01/12 11:26:42;;;;;;;0.10;0.10;;;;;;;6.37;100.00;95965.47;5048339;28;20233;-75
2023/01/12 11:30:19;;;;;;;0.20;0.20;;;;;;;6.36;100.00;95958.56;4716793;28;10001501;-76
2023/01/12 11:33:29;;;;;;;0.15;0.15;;;;;;;6.40;100.00;95948.28;5060332;28;20280;-76
2023/01/12 11:36:25;;;;;;;0.20;0.20;;;;;;;6.30;100.00;95948.88;5050992;28;20072;-75
2023/01/12 11:39:21;;;;;;;0.10;0.10;;;;;;;6.46;100.00;95947.34;5051529;28;20563;-75
2023/01/12 11:45:28;;;;;;;0.15;0.15;;;;;;;6.49;100.00;95944.22;5052838;28;20546;-76
2023/01/12 11:48:34;;;;;;;0.17;0.17;;;;;;;6.52;100.00;95943.72;5065409;28;20128;-75
2023/01/12 11:51:20;;;;;;;0.20;0.20;;;;;;;6.42;100.00;95922.25;5050614;28;20048;-74
2023/01/12 11:54:13;;;;;;;0.20;0.20;;;;;;;6.46;100.00;95936.72;5047683;28;20493;-75
2023/01/12 11:57:05;;;;;;;0.20;0.20;;;;;;;6.57;100.00;95929.75;5052204;28;20056;-76
2023/01/12 12:00:23;;;;;;;0.10;0.10;;;;;;;6.60;100.00;95942.53;5050403;28;20638;-76
2023/01/12 12:03:28;;;;;;;0.20;0.20;;;;;;;6.57;100.00;95929.75;5048473;28;20673;-76
2023/01/12 12:06:32;;;;;;;0.10;0.10;;;;;;;6.66;100.00;95933.63;5049715;28;20043;-76
2023/01/12 12:09:24;;;;;;;0.20;0.20;;;;;;;6.67;100.00;95940.56;5050490;28;20093;-76
2023/01/12 12:12:21;;;;;;;0.20;0.20;;;;;;;6.66;100.00;95930.97;5047582;28;20318;-76
2023/01/12 12:15:24;;;;;;;0.15;0.15;;;;;;;6.69;100.00;95941.97;5049787;28;20592;-75
2023/01/12 12:18:35;;;;;;;0.20;0.20;;;;;;;6.69;100.00;95922.53;5049222;28;20051;-75
2023/01/12 12:21:39;;;;;;;0.20;0.20;;;;;;;6.69;100.00;95919.84;5050040;28;20515;-76
2023/01/12 12:25:06;;;;;;;0.17;0.17;;;;;;;6.65;100.00;95911.56;5049135;28;20067;-76
2023/01/12 12:27:59;;;;;;;0.20;0.20;;;;;;;6.65;100.00;95924.84;5041015;28;20110;-76
2023/01/12 12:31:04;;;;;;;0.20;0.20;;;;;;;6.75;100.00;95924.22;5049022;28;20097;-76
2023/01/12 12:34:14;;;;;;;0.15;0.15;;;;;;;6.70;100.00;95921.50;5049004;28;20520;-75
2023/01/12 12:37:30;;;;;;;0.20;0.20;;;;;;;6.67;100.00;95929.94;5051717;28;20044;-76
2023/01/12 12:47:34;;;;;;;0.20;0.20;;;;;;;6.67;100.00;95917.44;5055124;28;20066;-75
2023/01/12 12:50:29;;;;;;;0.20;0.20;;;;;;;6.69;100.00;95917.19;5053754;28;20317;-76
2023/01/12 12:53:27;;;;;;;0.10;0.10;;;;;;;6.76;100.00;95925.03;5051204;28;20393;-75
2023/01/12 12:56:16;;;;;;;0.20;0.20;;;;;;;6.75;100.00;95924.22;5055351;28;20676;-75
2023/01/12 12:59:03;;;;;;;0.20;0.20;;;;;;;6.66;100.00;95921.16;5044241;28;20048;-77
2023/01/12 13:02:00;;;;;;;0.10;0.10;;;;;;;6.75;100.00;95918.09;5053328;28;20091;-76
2023/01/12 13:04:46;;;;;;;0.20;0.20;;;;;;;6.82;100.00;95914.28;5054482;28;20405;-76
2023/01/12 13:07:44;;;;;;;0.20;0.20;;;;;;;6.78;100.00;95915.00;5053719;28;20206;-77
2023/01/12 13:10:30;;;;;;;0.20;0.20;;;;;;;6.79;100.00;95909.44;5053468;28;20059;-77
2023/01/12 13:13:55;;;;;;;0.10;0.10;;;;;;;6.72;100.00;95922.06;5041408;28;20040;-77
2023/01/12 13:16:50;;;;;;;0.20;0.20;;;;;;;6.79;100.00;95914.75;5056135;28;20050;-77
2023/01/12 13:19:42;;;;;;;0.10;0.10;;;;;;;6.85;100.00;95934.28;5054507;28;20511;-77
2023/01/12 13:22:31;;;;;;;0.10;0.10;;;;;;;6.78;100.00;95918.47;5055584;28;20084;-77
2023/01/12 13:25:19;;;;;;;0.10;0.10;;;;;;;6.72;100.00;95919.41;5054093;28;20082;-77
2023/01/12 13:28:05;;;;;;;0.10;0.10;;;;;;;6.78;100.00;95929.09;5055328;28;20071;-77
2023/01/12 13:30:52;;;;;;;0.10;0.10;;;;;;;6.62;100.00;95919.22;5053122;28;20129;-77
2023/01/12 13:33:38;;;;;;;0.20;0.20;;;;;;;6.61;100.00;95923.69;5056791;28;20084;-76
2023/01/12 13:36:29;;;;;;;0.10;0.10;;;;;;;6.66;100.00;95915.03;5053971;28;20531;-77
2023/01/12 13:39:15;;;;;;;0.20;0.20;;;;;;;6.66;100.00;95910.50;5066883;28;20527;-77
2023/01/12 13:45:17;;;;;;;0.20;0.20;;;;;;;6.69;100.00;95917.19;5054853;28;20947;-76
2023/01/12 13:48:05;;;;;;;0.20;0.20;;;;;;;6.67;100.00;95916.63;5055344;28;20108;-78
2023/01/12 13:50:55;;;;;;;0.20;0.20;;;;;;;6.65;100.00;95924.84;5051734;28;20608;-77
2023/01/12 13:53:41;;;;;;;0.20;0.20;;;;;;;6.66;100.00;95921.16;5042211;28;20037;-77
2023/01/12 13:56:27;;;;;;;0.20;0.20;;;;;;;6.62;100.00;95919.22;5051354;28;20040;-77
2023/01/12 13:59:17;;;;;;;0.20;0.20;;;;;;;6.60;100.00;95923.94;5054753;28;20052;-77
2023/01/12 14:02:03;;;;;;;0.20;0.20;;;;;;;6.67;100.00;95938.72;5047063;28;20071;-77
2023/01/12 14:05:17;;;;;;;0.20;0.20;;;;;;;6.72;100.00;95932.69;5052046;28;20737;-76
2023/01/12 14:08:34;;;;;;;0.20;0.20;;;;;;;6.63;100.00;95911.00;5052754;28;20501;-77
2023/01/12 14:11:59;;;;;;;0.20;0.20;;;;;;;6.57;100.00;95945.69;5053388;28;20044;-77
2023/01/12 14:18:05;;;;;;;0.20;0.20;;;;;;;6.70;100.00;95924.16;5031168;28;20745;-76